KAC101 OKKK-EGLL
Flight info
| Callsign | KAC101 |
|---|---|
| Flight time | N/A |
| Altitude | 34000 |
| Route | RALKA DCT TASMI L602 ALPET L718 DEBNI DCT SEVKU/N0447F360 L718 KABAN UL718 ULSAB UG8 GEM UT32 BUK UL602 MAKOL DCT MOPUG/N0436F380 DCT ARSIN DCT TAGAS DCT DEXIT DCT MAMOR DCT PETIX DCT BOMBI DCT ADKUV DCT SOGRI DCT DENUT L608 LOGAN |
| Aircraft | A320/M-SDE3FGHIJ1RWY/LB1 |
Departure
| Time | N/A |
|---|---|
| Airport | Kuwait International Airport (OKKK) |
Arrival
| Time | 2026-05-04 23:31 |
|---|---|
| Airport | London Heathrow Airport (EGLL) |
| Time | Latitude | Longitude | Altitude | Speed | Heading |
|---|---|---|---|---|---|
| 2026-05-04 19:13 | 39.02511 | 37.01970 | 35873 ft | 441 kts | 277° |
| 2026-05-04 19:13 | 39.03035 | 36.98074 | 35872 ft | 441 kts | 277° |
| 2026-05-04 19:14 | 39.04074 | 36.90299 | 35883 ft | 441 kts | 277° |
| 2026-05-04 19:14 | 39.05106 | 36.82502 | 35889 ft | 442 kts | 277° |
| 2026-05-04 19:15 | 39.06128 | 36.74756 | 35891 ft | 442 kts | 277° |
| 2026-05-04 19:15 | 39.07156 | 36.66952 | 35893 ft | 442 kts | 277° |
| 2026-05-04 19:16 | 39.08177 | 36.59183 | 35894 ft | 442 kts | 277° |
| 2026-05-04 19:16 | 39.08827 | 36.54198 | 35177 ft | 441 kts | 279° |
| 2026-05-04 19:16 | 39.09323 | 36.50375 | 35355 ft | 436 kts | 279° |
| 2026-05-04 19:17 | 39.09822 | 36.46510 | 35868 ft | 440 kts | 274° |
| 2026-05-04 19:17 | 39.10820 | 36.38718 | 35811 ft | 442 kts | 275° |
| 2026-05-04 19:18 | 39.11822 | 36.30904 | 35823 ft | 442 kts | 275° |
| 2026-05-04 19:18 | 39.12822 | 36.23086 | 35821 ft | 443 kts | 275° |
| 2026-05-04 19:19 | 39.13815 | 36.15310 | 35816 ft | 443 kts | 275° |
| 2026-05-04 19:19 | 39.14804 | 36.07441 | 35816 ft | 442 kts | 275° |
| 2026-05-04 19:20 | 39.16549 | 35.99853 | 35812 ft | 451 kts | 292° |
| 2026-05-04 19:20 | 39.19388 | 35.92615 | 35823 ft | 453 kts | 292° |
| 2026-05-04 19:21 | 39.22226 | 35.85309 | 35817 ft | 453 kts | 292° |
| 2026-05-04 19:21 | 39.25006 | 35.78101 | 35812 ft | 453 kts | 292° |
| 2026-05-04 19:22 | 39.27825 | 35.70817 | 35810 ft | 454 kts | 292° |
| 2026-05-04 19:22 | 39.30653 | 35.63520 | 35801 ft | 455 kts | 293° |
| 2026-05-04 19:23 | 39.33469 | 35.56210 | 35809 ft | 455 kts | 293° |
| 2026-05-04 19:23 | 39.36271 | 35.48911 | 35800 ft | 455 kts | 293° |
| 2026-05-04 19:24 | 39.39079 | 35.41587 | 35806 ft | 455 kts | 294° |
| 2026-05-04 19:24 | 39.41893 | 35.34246 | 35804 ft | 456 kts | 293° |
| 2026-05-04 19:25 | 39.44700 | 35.26890 | 35805 ft | 456 kts | 293° |
| 2026-05-04 19:25 | 39.47500 | 35.19534 | 35809 ft | 456 kts | 294° |
| 2026-05-04 19:26 | 39.50297 | 35.12164 | 35811 ft | 456 kts | 294° |
| 2026-05-04 19:26 | 39.53084 | 35.04799 | 35810 ft | 456 kts | 294° |
| 2026-05-04 19:27 | 39.55872 | 34.97409 | 35810 ft | 456 kts | 294° |
| 2026-05-04 19:27 | 39.58630 | 34.90073 | 35808 ft | 456 kts | 294° |
| 2026-05-04 19:28 | 39.61410 | 34.82685 | 35810 ft | 456 kts | 294° |
| 2026-05-04 19:28 | 39.64188 | 34.75281 | 35810 ft | 456 kts | 294° |
| 2026-05-04 19:29 | 39.66951 | 34.67887 | 35818 ft | 456 kts | 294° |
| 2026-05-04 19:29 | 39.69713 | 34.60482 | 35817 ft | 455 kts | 294° |
| 2026-05-04 19:30 | 39.72471 | 34.53082 | 35818 ft | 455 kts | 294° |
| 2026-05-04 19:30 | 39.75221 | 34.45675 | 35819 ft | 455 kts | 294° |
| 2026-05-04 19:31 | 39.77965 | 34.38254 | 35826 ft | 455 kts | 295° |
| 2026-05-04 19:31 | 39.80707 | 34.30830 | 35827 ft | 455 kts | 295° |
| 2026-05-04 19:32 | 39.83443 | 34.23411 | 35828 ft | 455 kts | 295° |
| 2026-05-04 19:32 | 39.86152 | 34.16022 | 35829 ft | 456 kts | 295° |
| 2026-05-04 19:33 | 39.88889 | 34.08553 | 35834 ft | 457 kts | 295° |
| 2026-05-04 19:33 | 39.91621 | 34.01079 | 35835 ft | 456 kts | 295° |
| 2026-05-04 19:34 | 39.94341 | 33.93623 | 35842 ft | 457 kts | 295° |
| 2026-05-04 19:34 | 39.97060 | 33.86146 | 35841 ft | 456 kts | 296° |
| 2026-05-04 19:35 | 39.99777 | 33.78655 | 35841 ft | 456 kts | 295° |
| 2026-05-04 19:35 | 40.02482 | 33.71182 | 35846 ft | 456 kts | 295° |
| 2026-05-04 19:36 | 40.05172 | 33.63744 | 35850 ft | 455 kts | 296° |
| 2026-05-04 19:36 | 40.07865 | 33.56261 | 35848 ft | 456 kts | 295° |
| 2026-05-04 19:37 | 40.10552 | 33.48762 | 35856 ft | 455 kts | 295° |
| 2026-05-04 19:37 | 40.13236 | 33.41276 | 35865 ft | 455 kts | 296° |
| 2026-05-04 19:38 | 40.15916 | 33.33783 | 35878 ft | 455 kts | 296° |
| 2026-05-04 19:38 | 40.18592 | 33.26282 | 35894 ft | 455 kts | 296° |
| 2026-05-04 19:39 | 40.21262 | 33.18773 | 35906 ft | 455 kts | 296° |
| 2026-05-04 19:39 | 40.23942 | 33.11290 | 35909 ft | 454 kts | 300° |
| 2026-05-04 19:40 | 40.27389 | 33.04404 | 35909 ft | 452 kts | 306° |
| 2026-05-04 19:40 | 40.30947 | 32.97616 | 35907 ft | 452 kts | 306° |
| 2026-05-04 19:41 | 40.34468 | 32.90859 | 35896 ft | 452 kts | 306° |
| 2026-05-04 19:41 | 40.38033 | 32.84021 | 35899 ft | 452 kts | 306° |
| 2026-05-04 19:42 | 40.41583 | 32.77214 | 35902 ft | 451 kts | 306° |
| 2026-05-04 19:42 | 40.45094 | 32.70460 | 35904 ft | 451 kts | 306° |
| 2026-05-04 19:43 | 40.48616 | 32.63645 | 35913 ft | 451 kts | 307° |
| 2026-05-04 19:43 | 40.52139 | 32.56826 | 35914 ft | 451 kts | 307° |
| 2026-05-04 19:44 | 40.55664 | 32.50010 | 35922 ft | 451 kts | 307° |
| 2026-05-04 19:44 | 40.59175 | 32.43185 | 35923 ft | 450 kts | 307° |
| 2026-05-04 19:45 | 40.62674 | 32.36375 | 35938 ft | 449 kts | 307° |
| 2026-05-04 19:45 | 40.66166 | 32.29563 | 35938 ft | 448 kts | 307° |
| 2026-05-04 19:46 | 40.69649 | 32.22747 | 35947 ft | 448 kts | 307° |
| 2026-05-04 19:46 | 40.73114 | 32.15940 | 35955 ft | 446 kts | 307° |
| 2026-05-04 19:47 | 40.76518 | 32.09094 | 35957 ft | 446 kts | 306° |
| 2026-05-04 19:47 | 40.79899 | 32.02235 | 35964 ft | 446 kts | 306° |
| 2026-05-04 19:48 | 40.83288 | 31.95387 | 35969 ft | 444 kts | 307° |
| 2026-05-04 19:48 | 40.86656 | 31.88562 | 35975 ft | 444 kts | 307° |
| 2026-05-04 19:49 | 40.90030 | 31.81728 | 35972 ft | 443 kts | 307° |
| 2026-05-04 19:49 | 40.93389 | 31.74906 | 35975 ft | 443 kts | 307° |
| 2026-05-04 19:50 | 40.96736 | 31.68077 | 35976 ft | 442 kts | 307° |
| 2026-05-04 19:50 | 41.00080 | 31.61250 | 35979 ft | 442 kts | 307° |
| 2026-05-04 19:51 | 41.03426 | 31.54412 | 35978 ft | 442 kts | 307° |
| 2026-05-04 19:51 | 41.06199 | 31.48728 | 35963 ft | 440 kts | 307° |
| 2026-05-04 19:52 | 41.09500 | 31.41938 | 35973 ft | 437 kts | 307° |
| 2026-05-04 19:52 | 41.12785 | 31.35166 | 35975 ft | 436 kts | 307° |
| 2026-05-04 19:53 | 41.16066 | 31.28399 | 35975 ft | 436 kts | 307° |
| 2026-05-04 19:53 | 41.19346 | 31.21624 | 35973 ft | 436 kts | 307° |
| 2026-05-04 19:54 | 41.23169 | 31.13691 | 35977 ft | 436 kts | 307° |
| 2026-05-04 19:54 | 41.25883 | 31.08038 | 35979 ft | 436 kts | 307° |
| 2026-05-04 19:55 | 41.29148 | 31.01244 | 35954 ft | 436 kts | 307° |
| 2026-05-04 19:55 | 41.32412 | 30.94445 | 35979 ft | 436 kts | 307° |
| 2026-05-04 19:56 | 41.35670 | 30.87640 | 35981 ft | 436 kts | 307° |
| 2026-05-04 19:56 | 41.38929 | 30.80839 | 35982 ft | 436 kts | 307° |
| 2026-05-04 19:57 | 41.42177 | 30.74018 | 35974 ft | 436 kts | 307° |
| 2026-05-04 19:57 | 41.45424 | 30.67193 | 35984 ft | 436 kts | 307° |
| 2026-05-04 19:58 | 41.48706 | 30.60380 | 35993 ft | 436 kts | 308° |
| 2026-05-04 19:58 | 41.51988 | 30.53558 | 35985 ft | 437 kts | 307° |
| 2026-05-04 19:59 | 41.55247 | 30.46722 | 36001 ft | 436 kts | 307° |
| 2026-05-04 19:59 | 41.58490 | 30.39903 | 36002 ft | 435 kts | 307° |
| 2026-05-04 20:00 | 41.61712 | 30.33125 | 35986 ft | 435 kts | 307° |
| 2026-05-04 20:00 | 41.64947 | 30.26298 | 35986 ft | 435 kts | 307° |
| 2026-05-04 20:01 | 41.68179 | 30.19478 | 36008 ft | 433 kts | 307° |
| 2026-05-04 20:01 | 41.71402 | 30.12669 | 36003 ft | 433 kts | 307° |
| 2026-05-04 20:02 | 41.74606 | 30.05838 | 36003 ft | 433 kts | 307° |
| 2026-05-04 20:02 | 41.77809 | 29.99002 | 35993 ft | 432 kts | 307° |
| 2026-05-04 20:03 | 41.81014 | 29.92180 | 36008 ft | 432 kts | 307° |
| 2026-05-04 20:03 | 41.84219 | 29.85346 | 36010 ft | 432 kts | 307° |
| 2026-05-04 20:04 | 41.87409 | 29.78513 | 36017 ft | 432 kts | 307° |
| 2026-05-04 20:04 | 41.90596 | 29.71673 | 36014 ft | 432 kts | 307° |
| 2026-05-04 20:05 | 41.93779 | 29.64832 | 36020 ft | 432 kts | 307° |
| 2026-05-04 20:05 | 41.96953 | 29.57983 | 36024 ft | 432 kts | 307° |
| 2026-05-04 20:06 | 42.00132 | 29.51127 | 36023 ft | 432 kts | 307° |
| 2026-05-04 20:06 | 42.03306 | 29.44278 | 36028 ft | 431 kts | 307° |
| 2026-05-04 20:07 | 42.06472 | 29.37418 | 36036 ft | 431 kts | 306° |
| 2026-05-04 20:07 | 42.09621 | 29.30546 | 36030 ft | 431 kts | 306° |
| 2026-05-04 20:08 | 42.12773 | 29.23675 | 36038 ft | 431 kts | 306° |
| 2026-05-04 20:08 | 42.15920 | 29.16795 | 36044 ft | 431 kts | 306° |
| 2026-05-04 20:09 | 42.19141 | 29.10056 | 36044 ft | 429 kts | 310° |
| 2026-05-04 20:09 | 42.22725 | 29.03581 | 36044 ft | 428 kts | 312° |
| 2026-05-04 20:10 | 42.26314 | 28.97252 | 36027 ft | 428 kts | 311° |
| 2026-05-04 20:10 | 42.29861 | 28.90786 | 36046 ft | 429 kts | 310° |
| 2026-05-04 20:11 | 42.33365 | 28.84254 | 36049 ft | 429 kts | 310° |
| 2026-05-04 20:11 | 42.36860 | 28.77718 | 36053 ft | 429 kts | 310° |
| 2026-05-04 20:12 | 42.40359 | 28.71184 | 36053 ft | 429 kts | 310° |
| 2026-05-04 20:12 | 42.43863 | 28.64651 | 36048 ft | 429 kts | 310° |
| 2026-05-04 20:13 | 42.47364 | 28.58113 | 36058 ft | 429 kts | 310° |
| 2026-05-04 20:13 | 42.50874 | 28.51560 | 36059 ft | 429 kts | 310° |
| 2026-05-04 20:14 | 42.54371 | 28.45006 | 36068 ft | 429 kts | 309° |
| 2026-05-04 20:14 | 42.57866 | 28.38431 | 36054 ft | 429 kts | 309° |
| 2026-05-04 20:15 | 42.61348 | 28.31850 | 36071 ft | 429 kts | 309° |
| 2026-05-04 20:15 | 42.64828 | 28.25268 | 36064 ft | 429 kts | 309° |
| 2026-05-04 20:16 | 42.68313 | 28.18674 | 36070 ft | 429 kts | 309° |
| 2026-05-04 20:16 | 42.71796 | 28.12075 | 36070 ft | 429 kts | 309° |
| 2026-05-04 20:17 | 42.75267 | 28.05466 | 36074 ft | 430 kts | 309° |
| 2026-05-04 20:17 | 42.78741 | 27.98851 | 36072 ft | 430 kts | 309° |
| 2026-05-04 20:18 | 42.82185 | 27.92269 | 36077 ft | 429 kts | 308° |
| 2026-05-04 20:18 | 42.85665 | 27.85607 | 36073 ft | 429 kts | 308° |
| 2026-05-04 20:19 | 42.89106 | 27.79012 | 36078 ft | 429 kts | 308° |
| 2026-05-04 20:19 | 42.92563 | 27.72369 | 36070 ft | 429 kts | 308° |
| 2026-05-04 20:20 | 42.96011 | 27.65714 | 36071 ft | 428 kts | 308° |
| 2026-05-04 20:20 | 42.99447 | 27.59072 | 36072 ft | 428 kts | 308° |
| 2026-05-04 20:21 | 43.02882 | 27.52427 | 36070 ft | 428 kts | 308° |
| 2026-05-04 20:21 | 43.08027 | 27.42455 | 36073 ft | 427 kts | 307° |
| 2026-05-04 20:22 | 43.11436 | 27.35815 | 36070 ft | 426 kts | 307° |
| 2026-05-04 20:22 | 43.14835 | 27.29177 | 36070 ft | 426 kts | 307° |
| 2026-05-04 20:23 | 43.18229 | 27.22537 | 36073 ft | 426 kts | 307° |
| 2026-05-04 20:23 | 43.21622 | 27.15886 | 36073 ft | 425 kts | 307° |
| 2026-05-04 20:24 | 43.25006 | 27.09244 | 36072 ft | 424 kts | 307° |
| 2026-05-04 20:24 | 43.28380 | 27.02606 | 36067 ft | 424 kts | 307° |
| 2026-05-04 20:25 | 43.31746 | 26.95968 | 36068 ft | 424 kts | 307° |
| 2026-05-04 20:25 | 43.35111 | 26.89309 | 36071 ft | 424 kts | 306° |
| 2026-05-04 20:26 | 43.38473 | 26.82650 | 36070 ft | 425 kts | 306° |
| 2026-05-04 20:26 | 43.41829 | 26.75968 | 36068 ft | 425 kts | 306° |
| 2026-05-04 20:27 | 43.45192 | 26.69287 | 36065 ft | 424 kts | 306° |
| 2026-05-04 20:27 | 43.48544 | 26.62597 | 36065 ft | 425 kts | 306° |
| 2026-05-04 20:28 | 43.51866 | 26.55935 | 36065 ft | 425 kts | 306° |
| 2026-05-04 20:28 | 43.55217 | 26.49215 | 36062 ft | 425 kts | 306° |
| 2026-05-04 20:29 | 43.58562 | 26.42507 | 36062 ft | 425 kts | 306° |
| 2026-05-04 20:29 | 43.61909 | 26.35773 | 36053 ft | 425 kts | 306° |
| 2026-05-04 20:30 | 43.65252 | 26.29030 | 36059 ft | 425 kts | 306° |
| 2026-05-04 20:30 | 43.68583 | 26.22282 | 36059 ft | 425 kts | 306° |
| 2026-05-04 20:31 | 43.71915 | 26.15521 | 36054 ft | 426 kts | 306° |
| 2026-05-04 20:31 | 43.75242 | 26.08757 | 36054 ft | 426 kts | 306° |
| 2026-05-04 20:32 | 43.78575 | 26.01987 | 36057 ft | 426 kts | 306° |
| 2026-05-04 20:32 | 43.81900 | 25.95203 | 36057 ft | 426 kts | 306° |
| 2026-05-04 20:33 | 43.85215 | 25.88406 | 36054 ft | 426 kts | 305° |
| 2026-05-04 20:33 | 43.88527 | 25.81610 | 36057 ft | 426 kts | 305° |
| 2026-05-04 20:34 | 43.91844 | 25.74797 | 36060 ft | 426 kts | 305° |
| 2026-05-04 20:34 | 43.95134 | 25.68029 | 36059 ft | 426 kts | 305° |
| 2026-05-04 20:35 | 43.98434 | 25.61198 | 36066 ft | 426 kts | 305° |
| 2026-05-04 20:35 | 44.01729 | 25.54351 | 36062 ft | 426 kts | 304° |
| 2026-05-04 20:36 | 44.05027 | 25.47507 | 36063 ft | 427 kts | 304° |
| 2026-05-04 20:36 | 44.08333 | 25.40635 | 36065 ft | 427 kts | 304° |
| 2026-05-04 20:37 | 44.11627 | 25.33777 | 36069 ft | 427 kts | 304° |
| 2026-05-04 20:37 | 44.14921 | 25.26891 | 36067 ft | 427 kts | 304° |
| 2026-05-04 20:38 | 44.18211 | 25.20001 | 36067 ft | 427 kts | 304° |
| 2026-05-04 20:38 | 44.19300 | 25.17717 | 36067 ft | 427 kts | 304° |
| 2026-05-04 20:39 | 44.24418 | 25.06946 | 36071 ft | 427 kts | 304° |
| 2026-05-04 20:39 | 44.27693 | 25.00037 | 36071 ft | 427 kts | 304° |
| 2026-05-04 20:40 | 44.30947 | 24.93165 | 36070 ft | 427 kts | 304° |
| 2026-05-04 20:40 | 44.34215 | 24.86230 | 36071 ft | 427 kts | 304° |
| 2026-05-04 20:41 | 44.37484 | 24.79294 | 36070 ft | 427 kts | 304° |
| 2026-05-04 20:41 | 44.40741 | 24.72346 | 36071 ft | 427 kts | 304° |
| 2026-05-04 20:42 | 44.43993 | 24.65394 | 36065 ft | 427 kts | 304° |
| 2026-05-04 20:42 | 44.47248 | 24.58428 | 36078 ft | 427 kts | 304° |
| 2026-05-04 20:43 | 44.50525 | 24.51411 | 36076 ft | 427 kts | 304° |
| 2026-05-04 20:43 | 44.53754 | 24.44486 | 36076 ft | 427 kts | 304° |
| 2026-05-04 20:44 | 44.56991 | 24.37509 | 36069 ft | 428 kts | 304° |
| 2026-05-04 20:44 | 44.60230 | 24.30499 | 36093 ft | 428 kts | 304° |
| 2026-05-04 20:45 | 44.63462 | 24.23482 | 36076 ft | 428 kts | 304° |
| 2026-05-04 20:45 | 44.66701 | 24.16454 | 36079 ft | 428 kts | 304° |
| 2026-05-04 20:46 | 44.69930 | 24.09430 | 36091 ft | 428 kts | 304° |
| 2026-05-04 20:46 | 44.73160 | 24.02386 | 36087 ft | 428 kts | 304° |
| 2026-05-04 20:47 | 44.76376 | 23.95334 | 36088 ft | 428 kts | 304° |
| 2026-05-04 20:47 | 44.79591 | 23.88274 | 36086 ft | 428 kts | 304° |
| 2026-05-04 20:48 | 44.82807 | 23.81212 | 36080 ft | 428 kts | 304° |
| 2026-05-04 20:48 | 44.86019 | 23.74142 | 36089 ft | 428 kts | 304° |
| 2026-05-04 20:49 | 44.89220 | 23.67072 | 36089 ft | 428 kts | 304° |
| 2026-05-04 20:49 | 44.92423 | 23.59992 | 36080 ft | 428 kts | 304° |
| 2026-05-04 20:50 | 44.95615 | 23.52905 | 36084 ft | 428 kts | 304° |
| 2026-05-04 20:50 | 44.98791 | 23.45819 | 36087 ft | 427 kts | 304° |
| 2026-05-04 20:51 | 45.01966 | 23.38720 | 36097 ft | 427 kts | 304° |
| 2026-05-04 20:51 | 45.05142 | 23.31628 | 36094 ft | 427 kts | 304° |
| 2026-05-04 20:52 | 45.08316 | 23.24534 | 36094 ft | 427 kts | 304° |
| 2026-05-04 20:52 | 45.11457 | 23.17467 | 36098 ft | 427 kts | 304° |
| 2026-05-04 20:53 | 45.14610 | 23.10342 | 36096 ft | 427 kts | 304° |
| 2026-05-04 20:53 | 45.17763 | 23.03221 | 36113 ft | 426 kts | 304° |
| 2026-05-04 20:54 | 45.20914 | 22.96089 | 36116 ft | 427 kts | 304° |
| 2026-05-04 20:54 | 45.24054 | 22.88947 | 36118 ft | 426 kts | 304° |
| 2026-05-04 20:55 | 45.27193 | 22.81807 | 36116 ft | 426 kts | 304° |
| 2026-05-04 20:55 | 45.30326 | 22.74658 | 36131 ft | 426 kts | 304° |
| 2026-05-04 20:56 | 45.33451 | 22.67513 | 36134 ft | 426 kts | 304° |
| 2026-05-04 20:56 | 45.36571 | 22.60352 | 36126 ft | 425 kts | 304° |
| 2026-05-04 20:57 | 45.39686 | 22.53192 | 36136 ft | 425 kts | 304° |
| 2026-05-04 20:57 | 45.42767 | 22.46083 | 36136 ft | 425 kts | 304° |
| 2026-05-04 20:58 | 45.45869 | 22.38909 | 36132 ft | 425 kts | 304° |
| 2026-05-04 20:58 | 45.48963 | 22.31731 | 36106 ft | 425 kts | 304° |
| 2026-05-04 20:59 | 45.52049 | 22.24557 | 36125 ft | 424 kts | 304° |
| 2026-05-04 20:59 | 45.55128 | 22.17381 | 36119 ft | 424 kts | 304° |
| 2026-05-04 21:00 | 45.58205 | 22.10209 | 36122 ft | 424 kts | 304° |
| 2026-05-04 21:00 | 45.61283 | 22.03022 | 36113 ft | 424 kts | 304° |
| 2026-05-04 21:01 | 45.64347 | 21.95830 | 36112 ft | 424 kts | 304° |
| 2026-05-04 21:01 | 45.67416 | 21.88637 | 36105 ft | 424 kts | 304° |
| 2026-05-04 21:02 | 45.70473 | 21.81423 | 36098 ft | 424 kts | 304° |
| 2026-05-04 21:02 | 45.73522 | 21.74193 | 36098 ft | 424 kts | 303° |
| 2026-05-04 21:03 | 45.76559 | 21.66960 | 36088 ft | 424 kts | 304° |
| 2026-05-04 21:03 | 45.79602 | 21.59734 | 36095 ft | 424 kts | 304° |
| 2026-05-04 21:04 | 45.82620 | 21.52543 | 36085 ft | 424 kts | 303° |
| 2026-05-04 21:04 | 45.85651 | 21.45293 | 36084 ft | 424 kts | 303° |
| 2026-05-04 21:05 | 45.88677 | 21.38033 | 36084 ft | 424 kts | 303° |
| 2026-05-04 21:05 | 45.91697 | 21.30781 | 36083 ft | 423 kts | 303° |
| 2026-05-04 21:06 | 45.94715 | 21.23515 | 36083 ft | 423 kts | 303° |
| 2026-05-04 21:06 | 45.97726 | 21.16246 | 36082 ft | 423 kts | 303° |
| 2026-05-04 21:07 | 46.00738 | 21.08961 | 36081 ft | 423 kts | 303° |
| 2026-05-04 21:07 | 46.03735 | 21.01678 | 36082 ft | 423 kts | 302° |
| 2026-05-04 21:08 | 46.06729 | 20.94383 | 36078 ft | 423 kts | 302° |
| 2026-05-04 21:08 | 46.09727 | 20.87072 | 36080 ft | 424 kts | 302° |
| 2026-05-04 21:09 | 46.12722 | 20.79764 | 36081 ft | 423 kts | 302° |
| 2026-05-04 21:09 | 46.15706 | 20.72441 | 36063 ft | 424 kts | 302° |
| 2026-05-04 21:10 | 46.18620 | 20.65042 | 36073 ft | 424 kts | 300° |
| 2026-05-04 21:10 | 46.20970 | 20.58818 | 36073 ft | 425 kts | 300° |
| 2026-05-04 21:11 | 46.24260 | 20.50061 | 36070 ft | 425 kts | 300° |
| 2026-05-04 21:11 | 46.27091 | 20.42562 | 36317 ft | 425 kts | 300° |
| 2026-05-04 21:12 | 46.28026 | 20.40088 | 36486 ft | 424 kts | 300° |
| 2026-05-04 21:12 | 46.29915 | 20.35080 | 36857 ft | 423 kts | 300° |
| 2026-05-04 21:12 | 46.30843 | 20.32617 | 37029 ft | 422 kts | 300° |
| 2026-05-04 21:12 | 46.32245 | 20.28889 | 37278 ft | 421 kts | 300° |
| 2026-05-04 21:13 | 46.33644 | 20.25164 | 37510 ft | 421 kts | 300° |
| 2026-05-04 21:13 | 46.35038 | 20.21446 | 37732 ft | 420 kts | 300° |
| 2026-05-04 21:13 | 46.36433 | 20.17730 | 37953 ft | 420 kts | 300° |
| 2026-05-04 21:13 | 46.37826 | 20.14016 | 38047 ft | 420 kts | 299° |
| 2026-05-04 21:14 | 46.40599 | 20.06583 | 38077 ft | 419 kts | 299° |
| 2026-05-04 21:14 | 46.43362 | 19.99148 | 38074 ft | 419 kts | 299° |
| 2026-05-04 21:15 | 46.46126 | 19.91710 | 38075 ft | 419 kts | 299° |
| 2026-05-04 21:15 | 46.48889 | 19.84275 | 38084 ft | 419 kts | 299° |
| 2026-05-04 21:16 | 46.51645 | 19.76818 | 38088 ft | 419 kts | 299° |
| 2026-05-04 21:16 | 46.54388 | 19.69345 | 38076 ft | 419 kts | 299° |
| 2026-05-04 21:17 | 46.57120 | 19.61925 | 38097 ft | 419 kts | 299° |
| 2026-05-04 21:17 | 46.59865 | 19.54445 | 38090 ft | 419 kts | 299° |
| 2026-05-04 21:18 | 46.62596 | 19.46961 | 38093 ft | 419 kts | 299° |
| 2026-05-04 21:18 | 46.65318 | 19.39466 | 38088 ft | 419 kts | 298° |
| 2026-05-04 21:19 | 46.68038 | 19.31972 | 38069 ft | 419 kts | 298° |
| 2026-05-04 21:19 | 46.70757 | 19.24471 | 38068 ft | 418 kts | 298° |
| 2026-05-04 21:20 | 46.73467 | 19.16973 | 38078 ft | 418 kts | 298° |
| 2026-05-04 21:20 | 46.76170 | 19.09458 | 38079 ft | 418 kts | 298° |
| 2026-05-04 21:21 | 46.78870 | 19.01940 | 38063 ft | 418 kts | 298° |
| 2026-05-04 21:21 | 46.81567 | 18.94405 | 38070 ft | 418 kts | 298° |
| 2026-05-04 21:22 | 46.84260 | 18.86872 | 38062 ft | 419 kts | 298° |
| 2026-05-04 21:22 | 46.86951 | 18.79329 | 38062 ft | 419 kts | 298° |
| 2026-05-04 21:23 | 46.89631 | 18.71772 | 38066 ft | 419 kts | 298° |
| 2026-05-04 21:23 | 46.92303 | 18.64204 | 38060 ft | 419 kts | 297° |
| 2026-05-04 21:24 | 46.94975 | 18.56635 | 38060 ft | 419 kts | 297° |
| 2026-05-04 21:24 | 46.97632 | 18.49107 | 38057 ft | 419 kts | 297° |
| 2026-05-04 21:25 | 47.00305 | 18.41504 | 38054 ft | 418 kts | 297° |
| 2026-05-04 21:25 | 47.02915 | 18.34049 | 38046 ft | 418 kts | 297° |
| 2026-05-04 21:26 | 47.05595 | 18.26385 | 38052 ft | 418 kts | 297° |
| 2026-05-04 21:26 | 47.08236 | 18.18777 | 38049 ft | 418 kts | 297° |
| 2026-05-04 21:27 | 47.10871 | 18.11159 | 38050 ft | 418 kts | 297° |
| 2026-05-04 21:27 | 47.13500 | 18.03551 | 38041 ft | 418 kts | 297° |
| 2026-05-04 21:28 | 47.16132 | 17.95933 | 38038 ft | 418 kts | 297° |
| 2026-05-04 21:28 | 47.18763 | 17.88318 | 38034 ft | 417 kts | 297° |
| 2026-05-04 21:29 | 47.21363 | 17.80742 | 38029 ft | 417 kts | 296° |
| 2026-05-04 21:29 | 47.23969 | 17.73109 | 38018 ft | 417 kts | 296° |
| 2026-05-04 21:30 | 47.26540 | 17.65556 | 38015 ft | 417 kts | 296° |
| 2026-05-04 21:30 | 47.29137 | 17.57919 | 38022 ft | 417 kts | 296° |
| 2026-05-04 21:31 | 47.33001 | 17.46529 | 38018 ft | 416 kts | 296° |
| 2026-05-04 21:32 | 47.35579 | 17.38888 | 38015 ft | 416 kts | 296° |
| 2026-05-04 21:32 | 47.38151 | 17.31234 | 38013 ft | 416 kts | 296° |
| 2026-05-04 21:33 | 47.40721 | 17.23566 | 37998 ft | 417 kts | 296° |
| 2026-05-04 21:33 | 47.43289 | 17.15901 | 37983 ft | 417 kts | 296° |
| 2026-05-04 21:34 | 47.45849 | 17.08220 | 37983 ft | 417 kts | 296° |
| 2026-05-04 21:34 | 47.48409 | 17.00532 | 37980 ft | 417 kts | 296° |
| 2026-05-04 21:35 | 47.50970 | 16.92822 | 37980 ft | 417 kts | 295° |
| 2026-05-04 21:35 | 47.53519 | 16.85109 | 37983 ft | 417 kts | 295° |
| 2026-05-04 21:36 | 47.56061 | 16.77391 | 37974 ft | 417 kts | 295° |
| 2026-05-04 21:36 | 47.59065 | 16.70053 | 37978 ft | 417 kts | 302° |
| 2026-05-04 21:37 | 47.62241 | 16.62845 | 37959 ft | 418 kts | 302° |
| 2026-05-04 21:37 | 47.65421 | 16.55634 | 37974 ft | 418 kts | 302° |
| 2026-05-04 21:38 | 47.68596 | 16.48399 | 37972 ft | 418 kts | 302° |
| 2026-05-04 21:38 | 47.71762 | 16.41162 | 37960 ft | 418 kts | 302° |
| 2026-05-04 21:39 | 47.74923 | 16.33913 | 37949 ft | 418 kts | 302° |
| 2026-05-04 21:39 | 47.78039 | 16.26753 | 37953 ft | 418 kts | 302° |
| 2026-05-04 21:40 | 47.81241 | 16.19374 | 37953 ft | 418 kts | 302° |
| 2026-05-04 21:40 | 47.84372 | 16.12131 | 37952 ft | 419 kts | 301° |
| 2026-05-04 21:41 | 47.87540 | 16.04778 | 37958 ft | 419 kts | 302° |
| 2026-05-04 21:41 | 47.90670 | 15.97517 | 37960 ft | 420 kts | 301° |
| 2026-05-04 21:42 | 47.93820 | 15.90194 | 37972 ft | 420 kts | 301° |
| 2026-05-04 21:42 | 47.96962 | 15.82858 | 37985 ft | 419 kts | 301° |
| 2026-05-04 21:43 | 48.00089 | 15.75536 | 37961 ft | 418 kts | 301° |
| 2026-05-04 21:43 | 48.03202 | 15.68199 | 37949 ft | 418 kts | 301° |
| 2026-05-04 21:44 | 48.06254 | 15.60788 | 37943 ft | 418 kts | 299° |
| 2026-05-04 21:44 | 48.09128 | 15.53225 | 37942 ft | 418 kts | 298° |
| 2026-05-04 21:45 | 48.11954 | 15.45625 | 37945 ft | 419 kts | 298° |
| 2026-05-04 21:45 | 48.14820 | 15.38027 | 37940 ft | 419 kts | 298° |
| 2026-05-04 21:46 | 48.17711 | 15.30424 | 37939 ft | 420 kts | 298° |
| 2026-05-04 21:46 | 48.20599 | 15.22814 | 37949 ft | 420 kts | 298° |
| 2026-05-04 21:47 | 48.23468 | 15.15201 | 37943 ft | 420 kts | 298° |
| 2026-05-04 21:47 | 48.26331 | 15.07573 | 37953 ft | 419 kts | 297° |
| 2026-05-04 21:48 | 48.29194 | 14.99933 | 37957 ft | 419 kts | 297° |
| 2026-05-04 21:48 | 48.32024 | 14.92353 | 37948 ft | 419 kts | 297° |
| 2026-05-04 21:49 | 48.34870 | 14.84708 | 37952 ft | 419 kts | 297° |
| 2026-05-04 21:49 | 48.37710 | 14.77065 | 37971 ft | 419 kts | 297° |
| 2026-05-04 21:50 | 48.40547 | 14.69413 | 37966 ft | 418 kts | 296° |
| 2026-05-04 21:50 | 48.43376 | 14.61753 | 37964 ft | 418 kts | 296° |
| 2026-05-04 21:51 | 48.46189 | 14.54104 | 37960 ft | 418 kts | 296° |
| 2026-05-04 21:51 | 48.48994 | 14.46440 | 37956 ft | 417 kts | 296° |
| 2026-05-04 21:52 | 48.51710 | 14.39008 | 37962 ft | 417 kts | 296° |
| 2026-05-04 21:52 | 48.54448 | 14.31525 | 37962 ft | 418 kts | 296° |
| 2026-05-04 21:53 | 48.57137 | 14.24140 | 37959 ft | 418 kts | 296° |
| 2026-05-04 21:53 | 48.59925 | 14.16445 | 37962 ft | 418 kts | 296° |
| 2026-05-04 21:54 | 48.62497 | 14.09334 | 37963 ft | 418 kts | 296° |
| 2026-05-04 21:54 | 48.64813 | 14.02921 | 37964 ft | 418 kts | 296° |
| 2026-05-04 21:55 | 48.67599 | 13.95187 | 37984 ft | 419 kts | 296° |
| 2026-05-04 21:55 | 48.70298 | 13.87675 | 37978 ft | 419 kts | 295° |
| 2026-05-04 21:56 | 48.73468 | 13.78800 | 37973 ft | 419 kts | 295° |
| 2026-05-04 21:56 | 48.75939 | 13.71051 | 37968 ft | 416 kts | 285° |
| 2026-05-04 21:57 | 48.76883 | 13.64168 | 37969 ft | 412 kts | 275° |
| 2026-05-04 21:57 | 48.77632 | 13.55597 | 37971 ft | 413 kts | 275° |
| 2026-05-04 21:58 | 48.78389 | 13.46972 | 37962 ft | 413 kts | 275° |
| 2026-05-04 21:58 | 48.79137 | 13.38414 | 37964 ft | 414 kts | 275° |
| 2026-05-04 21:59 | 48.80000 | 13.28359 | 37960 ft | 414 kts | 275° |
| 2026-05-04 21:59 | 48.80616 | 13.21115 | 37959 ft | 413 kts | 275° |
| 2026-05-04 22:00 | 48.81343 | 13.12523 | 37956 ft | 413 kts | 275° |
| 2026-05-04 22:00 | 48.82193 | 13.02423 | 37950 ft | 413 kts | 275° |
| 2026-05-04 22:01 | 48.82787 | 12.95228 | 37949 ft | 413 kts | 275° |
| 2026-05-04 22:01 | 48.83504 | 12.86579 | 37947 ft | 413 kts | 275° |
| 2026-05-04 22:02 | 48.84210 | 12.77918 | 37940 ft | 413 kts | 275° |
| 2026-05-04 22:02 | 48.84907 | 12.69254 | 37942 ft | 414 kts | 275° |
| 2026-05-04 22:03 | 48.85604 | 12.60580 | 37939 ft | 414 kts | 275° |
| 2026-05-04 22:03 | 48.86288 | 12.51919 | 37941 ft | 414 kts | 274° |
| 2026-05-04 22:04 | 48.86963 | 12.43242 | 37942 ft | 414 kts | 274° |
| 2026-05-04 22:04 | 48.87632 | 12.34560 | 37942 ft | 414 kts | 274° |
| 2026-05-04 22:05 | 48.88307 | 12.25878 | 37946 ft | 414 kts | 277° |
| 2026-05-04 22:05 | 48.90076 | 12.17525 | 37939 ft | 420 kts | 293° |
| 2026-05-04 22:06 | 48.92639 | 12.09543 | 37934 ft | 420 kts | 292° |
| 2026-05-04 22:06 | 48.95172 | 12.01526 | 37946 ft | 421 kts | 292° |
| 2026-05-04 22:07 | 48.97709 | 11.93504 | 37972 ft | 421 kts | 292° |
| 2026-05-04 22:07 | 49.00230 | 11.85535 | 37970 ft | 420 kts | 292° |
| 2026-05-04 22:08 | 49.02751 | 11.77500 | 37964 ft | 420 kts | 292° |
| 2026-05-04 22:08 | 49.05263 | 11.69458 | 37962 ft | 420 kts | 292° |
| 2026-05-04 22:09 | 49.07769 | 11.61412 | 37960 ft | 420 kts | 292° |
| 2026-05-04 22:09 | 49.10275 | 11.53365 | 37981 ft | 420 kts | 292° |
| 2026-05-04 22:10 | 49.12784 | 11.45304 | 37971 ft | 420 kts | 291° |
| 2026-05-04 22:10 | 49.15277 | 11.37238 | 37976 ft | 420 kts | 291° |
| 2026-05-04 22:11 | 49.17767 | 11.29169 | 37979 ft | 420 kts | 291° |
| 2026-05-04 22:11 | 49.20249 | 11.21081 | 37993 ft | 420 kts | 291° |
| 2026-05-04 22:12 | 49.22714 | 11.13014 | 38004 ft | 420 kts | 291° |
| 2026-05-04 22:12 | 49.25141 | 11.05074 | 38003 ft | 420 kts | 291° |
| 2026-05-04 22:13 | 49.27590 | 10.97022 | 38011 ft | 420 kts | 291° |
| 2026-05-04 22:13 | 49.30053 | 10.88913 | 38004 ft | 420 kts | 291° |
| 2026-05-04 22:14 | 49.32477 | 10.80878 | 37983 ft | 419 kts | 291° |
| 2026-05-04 22:14 | 49.35087 | 10.72872 | 38000 ft | 422 kts | 296° |
| 2026-05-04 22:15 | 49.38042 | 10.65081 | 37981 ft | 423 kts | 296° |
| 2026-05-04 22:15 | 49.40981 | 10.57313 | 37978 ft | 424 kts | 296° |
| 2026-05-04 22:16 | 49.43941 | 10.49480 | 37956 ft | 424 kts | 296° |
| 2026-05-04 22:16 | 49.46889 | 10.41625 | 37957 ft | 424 kts | 296° |
| 2026-05-04 22:17 | 49.49835 | 10.33760 | 37964 ft | 425 kts | 296° |
| 2026-05-04 22:17 | 49.52776 | 10.25874 | 37996 ft | 425 kts | 295° |
| 2026-05-04 22:18 | 49.55728 | 10.17963 | 37988 ft | 426 kts | 295° |
| 2026-05-04 22:18 | 49.58672 | 10.10042 | 37991 ft | 426 kts | 295° |
| 2026-05-04 22:19 | 49.61605 | 10.02110 | 37990 ft | 426 kts | 295° |
| 2026-05-04 22:19 | 49.64536 | 9.94152 | 37988 ft | 426 kts | 295° |
| 2026-05-04 22:20 | 49.67466 | 9.86193 | 38002 ft | 427 kts | 295° |
| 2026-05-04 22:20 | 49.70396 | 9.78212 | 37999 ft | 427 kts | 295° |
| 2026-05-04 22:21 | 49.73318 | 9.70220 | 38002 ft | 427 kts | 295° |
| 2026-05-04 22:21 | 49.76236 | 9.62203 | 37995 ft | 427 kts | 295° |
| 2026-05-04 22:22 | 49.79145 | 9.54181 | 37998 ft | 428 kts | 295° |
| 2026-05-04 22:22 | 49.82056 | 9.46148 | 38024 ft | 428 kts | 295° |
| 2026-05-04 22:23 | 49.84972 | 9.38102 | 38013 ft | 428 kts | 295° |
| 2026-05-04 22:23 | 49.87867 | 9.30055 | 38010 ft | 428 kts | 294° |
| 2026-05-04 22:24 | 49.90758 | 9.21977 | 38006 ft | 428 kts | 294° |
| 2026-05-04 22:24 | 49.93624 | 9.13963 | 38011 ft | 428 kts | 294° |
| 2026-05-04 22:25 | 49.96512 | 9.05885 | 38013 ft | 428 kts | 294° |
| 2026-05-04 22:25 | 49.99395 | 8.97776 | 37997 ft | 429 kts | 294° |
| 2026-05-04 22:26 | 50.02273 | 8.89651 | 37991 ft | 429 kts | 294° |
| 2026-05-04 22:26 | 50.05142 | 8.81515 | 37984 ft | 429 kts | 293° |
| 2026-05-04 22:27 | 50.07341 | 8.73000 | 37993 ft | 424 kts | 285° |
| 2026-05-04 22:27 | 50.09374 | 8.64385 | 37977 ft | 424 kts | 285° |
| 2026-05-04 22:28 | 50.11408 | 8.55767 | 37978 ft | 423 kts | 285° |
| 2026-05-04 22:28 | 50.13428 | 8.47152 | 37991 ft | 423 kts | 285° |
| 2026-05-04 22:29 | 50.15441 | 8.38534 | 38012 ft | 423 kts | 285° |
| 2026-05-04 22:29 | 50.17451 | 8.29911 | 38019 ft | 423 kts | 285° |
| 2026-05-04 22:30 | 50.19452 | 8.21273 | 38007 ft | 424 kts | 285° |
| 2026-05-04 22:30 | 50.21448 | 8.12613 | 38004 ft | 424 kts | 285° |
| 2026-05-04 22:31 | 50.23443 | 8.03928 | 38003 ft | 425 kts | 285° |
| 2026-05-04 22:31 | 50.25440 | 7.95234 | 38005 ft | 425 kts | 285° |
| 2026-05-04 22:32 | 50.27429 | 7.86528 | 38009 ft | 426 kts | 285° |
| 2026-05-04 22:32 | 50.29415 | 7.77811 | 38017 ft | 426 kts | 285° |
| 2026-05-04 22:33 | 50.31381 | 7.69135 | 38014 ft | 426 kts | 285° |
| 2026-05-04 22:33 | 50.33347 | 7.60379 | 38011 ft | 426 kts | 285° |
| 2026-05-04 22:34 | 50.35304 | 7.51632 | 38002 ft | 426 kts | 285° |
| 2026-05-04 22:34 | 50.37260 | 7.42870 | 37999 ft | 426 kts | 285° |
| 2026-05-04 22:35 | 50.39214 | 7.34104 | 38013 ft | 426 kts | 285° |
| 2026-05-04 22:35 | 50.41152 | 7.25350 | 38006 ft | 425 kts | 285° |
| 2026-05-04 22:36 | 50.43094 | 7.16592 | 38011 ft | 425 kts | 285° |
| 2026-05-04 22:36 | 50.45022 | 7.07827 | 38006 ft | 424 kts | 285° |
| 2026-05-04 22:37 | 50.46935 | 6.99088 | 37992 ft | 423 kts | 285° |
| 2026-05-04 22:37 | 50.48828 | 6.90397 | 38002 ft | 423 kts | 285° |
| 2026-05-04 22:38 | 50.50730 | 6.81596 | 37980 ft | 423 kts | 284° |
| 2026-05-04 22:38 | 50.52406 | 6.72814 | 37977 ft | 421 kts | 281° |
| 2026-05-04 22:39 | 50.53907 | 6.63910 | 37965 ft | 421 kts | 281° |
| 2026-05-04 22:39 | 50.55412 | 6.55007 | 37966 ft | 422 kts | 281° |
| 2026-05-04 22:40 | 50.56957 | 6.46097 | 37971 ft | 422 kts | 282° |
| 2026-05-04 22:40 | 50.58507 | 6.37190 | 37959 ft | 422 kts | 282° |
| 2026-05-04 22:41 | 50.60054 | 6.28266 | 37954 ft | 423 kts | 281° |
| 2026-05-04 22:41 | 50.61593 | 6.19324 | 37960 ft | 423 kts | 281° |
| 2026-05-04 22:42 | 50.63131 | 6.10369 | 37963 ft | 424 kts | 281° |
| 2026-05-04 22:42 | 50.64654 | 6.01399 | 37980 ft | 424 kts | 281° |
| 2026-05-04 22:43 | 50.65915 | 5.93950 | 37982 ft | 424 kts | 281° |
| 2026-05-04 22:43 | 50.67431 | 5.84970 | 37982 ft | 423 kts | 281° |
| 2026-05-04 22:44 | 50.69175 | 5.74537 | 37983 ft | 423 kts | 281° |
| 2026-05-04 22:44 | 50.70667 | 5.65570 | 37977 ft | 423 kts | 281° |
| 2026-05-04 22:45 | 50.72165 | 5.56597 | 37991 ft | 423 kts | 282° |
| 2026-05-04 22:45 | 50.74142 | 5.44577 | 37982 ft | 423 kts | 281° |
| 2026-05-04 22:46 | 50.75613 | 5.35574 | 37991 ft | 423 kts | 281° |
| 2026-05-04 22:46 | 50.77086 | 5.26571 | 37984 ft | 424 kts | 281° |
| 2026-05-04 22:47 | 50.78552 | 5.17543 | 37964 ft | 424 kts | 281° |
| 2026-05-04 22:47 | 50.80006 | 5.08499 | 37964 ft | 425 kts | 281° |
| 2026-05-04 22:48 | 50.82149 | 4.99758 | 37958 ft | 430 kts | 294° |
| 2026-05-04 22:48 | 50.84844 | 4.91305 | 37955 ft | 431 kts | 294° |
| 2026-05-04 22:49 | 50.87513 | 4.82876 | 37964 ft | 431 kts | 293° |
| 2026-05-04 22:49 | 50.90193 | 4.74373 | 37968 ft | 432 kts | 293° |
| 2026-05-04 22:50 | 50.92871 | 4.65847 | 38000 ft | 432 kts | 293° |
| 2026-05-04 22:50 | 50.95536 | 4.57305 | 37991 ft | 433 kts | 293° |
| 2026-05-04 22:51 | 50.98207 | 4.48729 | 37987 ft | 433 kts | 293° |
| 2026-05-04 22:51 | 51.00867 | 4.40181 | 37983 ft | 434 kts | 293° |
| 2026-05-04 22:52 | 51.03531 | 4.31573 | 37982 ft | 434 kts | 293° |
| 2026-05-04 22:52 | 51.06187 | 4.22976 | 37983 ft | 434 kts | 293° |
| 2026-05-04 22:53 | 51.08841 | 4.14352 | 37981 ft | 434 kts | 293° |
| 2026-05-04 22:53 | 51.11487 | 4.05721 | 37980 ft | 434 kts | 293° |
| 2026-05-04 22:54 | 51.14126 | 3.97089 | 37983 ft | 434 kts | 293° |
| 2026-05-04 22:54 | 51.16761 | 3.88442 | 37984 ft | 434 kts | 293° |
| 2026-05-04 22:55 | 51.19383 | 3.79785 | 37996 ft | 434 kts | 293° |
| 2026-05-04 22:55 | 51.21998 | 3.71103 | 37994 ft | 434 kts | 293° |
| 2026-05-04 22:56 | 51.24797 | 3.62556 | 37996 ft | 436 kts | 298° |
| 2026-05-04 22:56 | 51.27884 | 3.54288 | 37994 ft | 436 kts | 298° |
| 2026-05-04 22:57 | 51.30970 | 3.45949 | 38010 ft | 436 kts | 298° |
| 2026-05-04 22:57 | 51.34041 | 3.37594 | 38012 ft | 435 kts | 297° |
| 2026-05-04 22:58 | 51.36428 | 3.28770 | 38013 ft | 431 kts | 288° |
| 2026-05-04 22:58 | 51.38550 | 3.19796 | 38025 ft | 431 kts | 288° |
| 2026-05-04 22:59 | 51.40659 | 3.10814 | 38020 ft | 431 kts | 288° |
| 2026-05-04 22:59 | 51.42769 | 3.01839 | 38024 ft | 430 kts | 288° |
| 2026-05-04 23:00 | 51.44877 | 2.92855 | 38022 ft | 431 kts | 288° |
| 2026-05-04 23:00 | 51.46983 | 2.83862 | 38036 ft | 431 kts | 288° |
| 2026-05-04 23:01 | 51.49077 | 2.74872 | 38024 ft | 431 kts | 288° |
| 2026-05-04 23:01 | 51.51186 | 2.65747 | 38024 ft | 431 kts | 288° |
| 2026-05-04 23:02 | 51.53246 | 2.56807 | 38029 ft | 432 kts | 288° |
| 2026-05-04 23:02 | 51.55320 | 2.47755 | 38034 ft | 432 kts | 288° |
| 2026-05-04 23:03 | 51.57386 | 2.38698 | 38045 ft | 432 kts | 288° |
| 2026-05-04 23:03 | 51.58420 | 2.34145 | 37399 ft | 437 kts | 288° |
| 2026-05-04 23:03 | 51.59470 | 2.29530 | 36612 ft | 439 kts | 288° |
| 2026-05-04 23:04 | 51.60518 | 2.24923 | 35874 ft | 440 kts | 288° |
| 2026-05-04 23:04 | 51.61574 | 2.20277 | 35014 ft | 445 kts | 287° |
| 2026-05-04 23:04 | 51.62619 | 2.15666 | 34415 ft | 442 kts | 287° |
| 2026-05-04 23:04 | 51.63669 | 2.11036 | 33874 ft | 438 kts | 287° |
| 2026-05-04 23:05 | 51.64704 | 2.06460 | 33274 ft | 434 kts | 287° |
| 2026-05-04 23:05 | 51.65730 | 2.01911 | 32672 ft | 430 kts | 287° |
| 2026-05-04 23:05 | 51.66743 | 1.97406 | 32088 ft | 426 kts | 287° |
| 2026-05-04 23:05 | 51.67741 | 1.92939 | 31525 ft | 422 kts | 287° |
| 2026-05-04 23:06 | 51.68724 | 1.88510 | 30959 ft | 419 kts | 287° |
| 2026-05-04 23:06 | 51.69702 | 1.84103 | 30412 ft | 416 kts | 287° |
| 2026-05-04 23:06 | 51.70670 | 1.79728 | 29847 ft | 412 kts | 287° |
| 2026-05-04 23:06 | 51.71627 | 1.75395 | 29251 ft | 409 kts | 287° |
| 2026-05-04 23:07 | 51.72574 | 1.71096 | 28656 ft | 405 kts | 287° |
| 2026-05-04 23:07 | 51.73514 | 1.66831 | 28081 ft | 401 kts | 287° |
| 2026-05-04 23:07 | 51.74288 | 1.62536 | 27505 ft | 395 kts | 278° |
| 2026-05-04 23:07 | 51.74526 | 1.58170 | 26958 ft | 388 kts | 266° |
| 2026-05-04 23:08 | 51.74297 | 1.53859 | 26379 ft | 385 kts | 263° |
| 2026-05-04 23:08 | 51.74014 | 1.49575 | 25805 ft | 383 kts | 263° |
| 2026-05-04 23:08 | 51.73739 | 1.45323 | 25255 ft | 380 kts | 262° |
| 2026-05-04 23:08 | 51.73465 | 1.41087 | 24730 ft | 378 kts | 262° |
| 2026-05-04 23:09 | 51.73192 | 1.36891 | 24233 ft | 375 kts | 263° |
| 2026-05-04 23:09 | 51.72919 | 1.32733 | 23697 ft | 373 kts | 263° |
| 2026-05-04 23:09 | 51.72642 | 1.28578 | 23122 ft | 371 kts | 263° |
| 2026-05-04 23:09 | 51.72369 | 1.24450 | 22558 ft | 369 kts | 263° |
| 2026-05-04 23:10 | 51.72097 | 1.20347 | 22029 ft | 367 kts | 263° |
| 2026-05-04 23:10 | 51.71826 | 1.16273 | 21546 ft | 364 kts | 263° |
| 2026-05-04 23:10 | 51.71556 | 1.12234 | 21082 ft | 360 kts | 263° |
| 2026-05-04 23:10 | 51.71289 | 1.08241 | 20623 ft | 358 kts | 263° |
| 2026-05-04 23:11 | 51.71021 | 1.04262 | 20171 ft | 355 kts | 263° |
| 2026-05-04 23:11 | 51.70753 | 1.00323 | 19723 ft | 353 kts | 263° |
| 2026-05-04 23:11 | 51.70485 | 0.96398 | 19287 ft | 351 kts | 262° |
| 2026-05-04 23:11 | 51.70220 | 0.92561 | 18865 ft | 349 kts | 263° |
| 2026-05-04 23:12 | 51.69951 | 0.88692 | 18438 ft | 347 kts | 263° |
| 2026-05-04 23:12 | 51.69683 | 0.84838 | 17949 ft | 345 kts | 263° |
| 2026-05-04 23:12 | 51.69413 | 0.81006 | 17485 ft | 345 kts | 263° |
| 2026-05-04 23:12 | 51.69139 | 0.77163 | 17012 ft | 347 kts | 262° |
| 2026-05-04 23:13 | 51.68858 | 0.73243 | 16511 ft | 346 kts | 263° |
| 2026-05-04 23:13 | 51.68589 | 0.69452 | 16010 ft | 346 kts | 262° |
| 2026-05-04 23:13 | 51.68316 | 0.65597 | 15507 ft | 346 kts | 263° |
| 2026-05-04 23:13 | 51.68042 | 0.61745 | 15013 ft | 346 kts | 262° |
| 2026-05-04 23:14 | 51.67817 | 0.57900 | 14527 ft | 346 kts | 266° |
| 2026-05-04 23:14 | 51.67689 | 0.54028 | 14091 ft | 345 kts | 266° |
| 2026-05-04 23:14 | 51.67570 | 0.50228 | 13880 ft | 336 kts | 266° |
| 2026-05-04 23:14 | 51.67449 | 0.46492 | 13503 ft | 332 kts | 266° |
| 2026-05-04 23:15 | 51.67321 | 0.42799 | 13118 ft | 329 kts | 266° |
| 2026-05-04 23:15 | 51.67121 | 0.39149 | 12699 ft | 326 kts | 262° |
| 2026-05-04 23:15 | 51.66787 | 0.35551 | 12288 ft | 323 kts | 260° |
| 2026-05-04 23:15 | 51.66417 | 0.31996 | 11881 ft | 321 kts | 260° |
| 2026-05-04 23:16 | 51.66033 | 0.28465 | 11467 ft | 319 kts | 259° |
| 2026-05-04 23:16 | 51.65649 | 0.24965 | 11066 ft | 316 kts | 260° |
| 2026-05-04 23:16 | 51.65271 | 0.21489 | 10675 ft | 314 kts | 260° |
| 2026-05-04 23:16 | 51.64900 | 0.18051 | 10367 ft | 309 kts | 260° |
| 2026-05-04 23:17 | 51.64508 | 0.14717 | 10226 ft | 297 kts | 255° |
| 2026-05-04 23:17 | 51.64127 | 0.11507 | 10053 ft | 288 kts | 264° |
| 2026-05-04 23:17 | 51.63975 | 0.08308 | 9696 ft | 286 kts | 266° |
| 2026-05-04 23:17 | 51.63843 | 0.05129 | 9341 ft | 283 kts | 266° |
| 2026-05-04 23:18 | 51.63711 | 0.01978 | 8890 ft | 283 kts | 266° |
| 2026-05-04 23:18 | 51.63574 | -0.01174 | 8586 ft | 279 kts | 266° |
| 2026-05-04 23:18 | 51.63437 | -0.04270 | 8276 ft | 275 kts | 266° |
| 2026-05-04 23:18 | 51.63329 | -0.06715 | 7992 ft | 273 kts | 266° |
| 2026-05-04 23:19 | 51.63192 | -0.09749 | 7622 ft | 271 kts | 266° |
| 2026-05-04 23:19 | 51.63055 | -0.12748 | 7177 ft | 270 kts | 266° |
| 2026-05-04 23:19 | 51.62914 | -0.15779 | 6931 ft | 265 kts | 266° |
| 2026-05-04 23:19 | 51.62773 | -0.18748 | 6994 ft | 268 kts | 266° |
| 2026-05-04 23:20 | 51.62630 | -0.21738 | 7006 ft | 268 kts | 266° |
| 2026-05-04 23:20 | 51.62486 | -0.24735 | 7008 ft | 268 kts | 266° |
| 2026-05-04 23:20 | 51.62349 | -0.27580 | 7009 ft | 268 kts | 266° |
| 2026-05-04 23:20 | 51.62202 | -0.30612 | 7009 ft | 269 kts | 266° |
| 2026-05-04 23:21 | 51.62057 | -0.33612 | 6981 ft | 268 kts | 266° |
| 2026-05-04 23:21 | 51.61917 | -0.36499 | 6978 ft | 250 kts | 266° |
| 2026-05-04 23:21 | 51.61785 | -0.39209 | 6979 ft | 238 kts | 266° |
| 2026-05-04 23:21 | 51.61658 | -0.41797 | 6981 ft | 236 kts | 266° |
| 2026-05-04 23:22 | 51.61536 | -0.44264 | 6981 ft | 236 kts | 266° |
| 2026-05-04 23:22 | 51.61408 | -0.46856 | 6982 ft | 236 kts | 266° |
| 2026-05-04 23:22 | 51.61278 | -0.49485 | 6982 ft | 236 kts | 266° |
| 2026-05-04 23:22 | 51.61147 | -0.52112 | 6952 ft | 235 kts | 266° |
| 2026-05-04 23:23 | 51.61016 | -0.54719 | 6634 ft | 233 kts | 266° |
| 2026-05-04 23:23 | 51.60882 | -0.57318 | 6309 ft | 232 kts | 266° |
| 2026-05-04 23:23 | 51.60748 | -0.59895 | 5962 ft | 231 kts | 266° |
| 2026-05-04 23:23 | 51.60612 | -0.62467 | 5611 ft | 230 kts | 266° |
| 2026-05-04 23:24 | 51.60474 | -0.65033 | 5259 ft | 230 kts | 266° |
| 2026-05-04 23:24 | 51.60335 | -0.67578 | 4932 ft | 229 kts | 266° |
| 2026-05-04 23:24 | 51.60195 | -0.70128 | 4579 ft | 228 kts | 265° |
| 2026-05-04 23:24 | 51.59740 | -0.72548 | 4233 ft | 229 kts | 237° |
| 2026-05-04 23:25 | 51.58555 | -0.74186 | 4020 ft | 224 kts | 207° |
| 2026-05-04 23:25 | 51.57626 | -0.74838 | 3983 ft | 215 kts | 202° |
| 2026-05-04 23:25 | 51.55828 | -0.75910 | 4000 ft | 199 kts | 201° |
| 2026-05-04 23:25 | 51.54538 | -0.76661 | 4006 ft | 196 kts | 201° |
| 2026-05-04 23:26 | 51.53210 | -0.77165 | 4002 ft | 197 kts | 186° |
| 2026-05-04 23:26 | 51.51849 | -0.77276 | 3781 ft | 195 kts | 181° |
| 2026-05-04 23:26 | 51.50486 | -0.77326 | 3498 ft | 196 kts | 181° |
| 2026-05-04 23:26 | 51.49138 | -0.77119 | 3218 ft | 194 kts | 155° |
| 2026-05-04 23:27 | 51.48072 | -0.75863 | 2990 ft | 187 kts | 126° |
| 2026-05-04 23:27 | 51.47486 | -0.74068 | 3005 ft | 183 kts | 100° |
| 2026-05-04 23:27 | 51.47442 | -0.72037 | 3052 ft | 182 kts | 81° |
| 2026-05-04 23:27 | 51.47639 | -0.70080 | 2939 ft | 175 kts | 78° |
| 2026-05-04 23:28 | 51.47838 | -0.68187 | 2988 ft | 170 kts | 82° |
| 2026-05-04 23:28 | 51.47849 | -0.66941 | 2956 ft | 167 kts | 94° |
| 2026-05-04 23:28 | 51.47723 | -0.65102 | 2903 ft | 164 kts | 96° |
| 2026-05-04 23:28 | 51.47672 | -0.63272 | 2974 ft | 165 kts | 88° |
| 2026-05-04 23:29 | 51.47689 | -0.60819 | 2981 ft | 164 kts | 87° |
| 2026-05-04 23:29 | 51.47700 | -0.58982 | 2631 ft | 166 kts | 87° |
| 2026-05-04 23:29 | 51.47709 | -0.57129 | 2246 ft | 164 kts | 88° |
| 2026-05-04 23:29 | 51.47712 | -0.55961 | 2042 ft | 154 kts | 87° |
| 2026-05-04 23:30 | 51.47725 | -0.54261 | 1550 ft | 151 kts | 86° |
| 2026-05-04 23:30 | 51.47741 | -0.52574 | 1078 ft | 149 kts | 87° |
| 2026-05-04 23:30 | 51.47739 | -0.50934 | 647 ft | 146 kts | 88° |
| 2026-05-04 23:30 | 51.47746 | -0.49340 | 301 ft | 141 kts | 86° |
| 2026-05-04 23:31 | 51.47749 | -0.47824 | 97 ft | 127 kts | 86° |
| 2026-05-04 23:31 | 51.47761 | -0.46601 | 91 ft | 86 kts | 89° |
| 2026-05-04 23:31 | 51.47761 | -0.45847 | 84 ft | 52 kts | 89° |
| 2026-05-04 23:31 | 51.47755 | -0.45540 | 86 ft | 14 kts | 104° |
| 2026-05-04 23:32 | 51.47670 | -0.45467 | 86 ft | 9 kts | 179° |
| 2026-05-04 23:32 | 51.47648 | -0.45467 | 86 ft | 4 kts | 179° |
| 2026-05-04 23:32 | 51.47629 | -0.45466 | 86 ft | 1 kts | 176° |
| 2026-05-04 23:32 | 51.47622 | -0.45465 | 86 ft | 1 kts | 176° |
| 2026-05-04 23:33 | 51.47588 | -0.45465 | 86 ft | 8 kts | 180° |
| 2026-05-04 23:33 | 51.47543 | -0.45462 | 86 ft | 6 kts | 168° |
| 2026-05-04 23:33 | 51.47525 | -0.45448 | 90 ft | 2 kts | 146° |
| 2026-05-04 23:33 | 51.47509 | -0.45393 | 88 ft | 12 kts | 97° |
| 2026-05-04 23:34 | 51.47510 | -0.45248 | 90 ft | 14 kts | 88° |
| 2026-05-04 23:34 | 51.47510 | -0.45074 | 89 ft | 17 kts | 90° |
| 2026-05-04 23:34 | 51.47510 | -0.44870 | 90 ft | 19 kts | 90° |
| 2026-05-04 23:34 | 51.47510 | -0.44662 | 89 ft | 12 kts | 91° |
| 2026-05-04 23:35 | 51.47458 | -0.44559 | 87 ft | 13 kts | 175° |
| 2026-05-04 23:35 | 51.47368 | -0.44559 | 86 ft | 12 kts | 180° |
| 2026-05-04 23:35 | 51.47288 | -0.44558 | 86 ft | 11 kts | 180° |
| 2026-05-04 23:35 | 51.47214 | -0.44558 | 86 ft | 10 kts | 180° |
| 2026-05-04 23:36 | 51.47147 | -0.44557 | 86 ft | 9 kts | 180° |
| 2026-05-04 23:36 | 51.47085 | -0.44557 | 86 ft | 9 kts | 180° |
| 2026-05-04 23:36 | 51.47028 | -0.44557 | 86 ft | 8 kts | 180° |
| 2026-05-04 23:36 | 51.46973 | -0.44556 | 86 ft | 8 kts | 180° |
| 2026-05-04 23:37 | 51.46919 | -0.44556 | 86 ft | 7 kts | 180° |
| 2026-05-04 23:37 | 51.46870 | -0.44555 | 86 ft | 7 kts | 180° |
| 2026-05-04 23:37 | 51.46826 | -0.44555 | 88 ft | 6 kts | 180° |
| 2026-05-04 23:37 | 51.46787 | -0.44554 | 86 ft | 5 kts | 180° |
| 2026-05-04 23:38 | 51.46751 | -0.44554 | 86 ft | 5 kts | 180° |
| 2026-05-04 23:38 | 51.46712 | -0.44554 | 88 ft | 4 kts | 180° |
| 2026-05-04 23:38 | 51.46672 | -0.44583 | 90 ft | 7 kts | 238° |
| 2026-05-04 23:38 | 51.46658 | -0.44650 | 90 ft | 6 kts | 242° |
| 2026-05-04 23:39 | 51.46611 | -0.44720 | 90 ft | 10 kts | 220° |
| 2026-05-04 23:39 | 51.46563 | -0.44786 | 88 ft | 8 kts | 221° |
| 2026-05-04 23:39 | 51.46487 | -0.44896 | 91 ft | 24 kts | 222° |
| 2026-05-04 23:39 | 51.46410 | -0.45006 | 92 ft | 13 kts | 220° |
| 2026-05-04 23:40 | 51.46335 | -0.45051 | 87 ft | 12 kts | 155° |
| 2026-05-04 23:40 | 51.46317 | -0.44938 | 88 ft | 12 kts | 89° |
| 2026-05-04 23:40 | 51.46319 | -0.44793 | 88 ft | 14 kts | 90° |
| 2026-05-04 23:40 | 51.46246 | -0.44745 | 90 ft | 12 kts | 230° |
| 2026-05-04 23:41 | 51.46230 | -0.44770 | 88 ft | 6 kts | 221° |
| 2026-05-04 23:41 | 51.46193 | -0.44822 | 89 ft | 7 kts | 221° |
| 2026-05-04 23:41 | 51.46140 | -0.44897 | 88 ft | 11 kts | 221° |
| 2026-05-04 23:41 | 51.46084 | -0.44962 | 89 ft | 9 kts | 190° |
| 2026-05-04 23:42 | 51.46036 | -0.44909 | 89 ft | 8 kts | 131° |
| 2026-05-04 23:42 | 51.46019 | -0.44878 | 88 ft | 0 kts | 131° |